Terminal Aerodrome Forecast
Issued by NWS Sioux Falls, SD

Home | Current Version | Previous Version | Graphics & Text | Print | Product List | Glossary On
Versions: 1 2 3 4 5 6 7 8 9 10 11 12 13 14 15 16 17 18 19 20 21 22 23
429
FTUS43 KFSD 250520
TAFSUX
TAF
KSUX 250520Z 2506/2606 32012KT P6SM SCT250
     FM250800 31009KT P6SM SCT250
     FM251600 27006KT P6SM SCT090
     FM251900 20006KT P6SM BKN080
     FM260000 17007KT P6SM BKN050=

USA.gov is the U.S. government's official web portal to all federal, state and local government web resources and services.